Time;durP1;ratioP1;P1;durP2;ratioP2;P2;SDS_P1;SDS_P2;PMS_P1;PMS_P2;Temp;Humidity;BMP_temperature;BMP_pressure;BME280_temperature;BME280_humidity;BME280_pressure;Samples;Min_cycle;Max_cycle;Signal;HPM_P1;HPM_P2
2020/12/03 00:01:52;;;;;;;18.30;16.70;;;;;;;1.64;78.55;99913.78;5030247;28;20222;-80
2020/12/03 00:04:17;;;;;;;16.60;15.13;;;;;;;1.60;78.32;99910.00;5030310;28;20288;-80
2020/12/03 00:06:49;;;;;;;17.57;15.73;;;;;;;1.51;79.03;99898.94;5012227;28;20992;-79
2020/12/03 00:09:19;;;;;;;16.80;15.30;;;;;;;1.48;79.44;99892.19;5033994;28;20552;-79
2020/12/03 00:11:51;;;;;;;21.57;15.63;;;;;;;1.57;78.90;99895.16;5034212;28;20433;-80
2020/12/03 00:14:17;;;;;;;16.83;15.23;;;;;;;1.56;78.28;99893.53;5016336;28;20426;-80
2020/12/03 00:16:44;;;;;;;17.00;15.33;;;;;;;1.53;78.56;99899.47;5033695;28;20427;-80
2020/12/03 00:19:11;;;;;;;17.37;15.67;;;;;;;1.53;78.75;99894.09;5033998;28;20450;-79
2020/12/03 00:21:53;;;;;;;16.73;15.20;;;;;;;1.54;78.57;99892.19;5016328;28;20430;-80
2020/12/03 00:24:22;;;;;;;16.97;15.43;;;;;;;1.50;79.08;99894.63;5034322;28;20446;-79
2020/12/03 00:26:48;;;;;;;16.80;14.43;;;;;;;1.53;79.10;99890.59;5033692;28;20422;-80
2020/12/03 00:29:13;;;;;;;13.40;12.10;;;;;;;1.50;78.88;99881.16;5033746;28;20505;-79
2020/12/03 00:31:42;;;;;;;17.17;15.53;;;;;;;1.46;78.99;99880.09;5033783;28;20195;-79
2020/12/03 00:34:09;;;;;;;15.50;14.10;;;;;;;1.39;79.23;99872.25;5033779;28;20180;-79
2020/12/03 00:36:35;;;;;;;13.37;12.07;;;;;;;1.36;79.36;99874.66;5033550;28;20417;-79
2020/12/03 00:39:03;;;;;;;15.37;13.90;;;;;;;1.34;79.75;99869.56;5033577;28;20809;-80
2020/12/03 00:41:29;;;;;;;15.83;14.40;;;;;;;1.31;79.80;99863.91;5048934;28;20429;-79
2020/12/03 00:43:54;;;;;;;17.57;15.73;;;;;;;1.27;79.78;99863.59;5033586;28;20414;-80
2020/12/03 00:46:19;;;;;;;16.53;14.93;;;;;;;1.26;79.99;99856.59;5033269;28;20183;-79
2020/12/03 00:48:45;;;;;;;15.93;14.43;;;;;;;1.27;79.80;99846.63;5053115;28;20662;-80
2020/12/03 00:51:12;;;;;;;15.87;14.30;;;;;;;1.28;80.17;99841.00;5058603;28;20190;-80
2020/12/03 00:53:39;;;;;;;15.97;14.47;;;;;;;1.32;80.21;99846.69;5073362;28;20179;-79
2020/12/03 00:56:05;;;;;;;16.47;14.87;;;;;;;1.31;80.14;99845.06;5073216;28;20474;-80
2020/12/03 00:58:30;;;;;;;17.23;15.53;;;;;;;1.33;80.53;99841.03;5073053;28;20433;-80
2020/12/03 01:00:56;;;;;;;10.90;9.50;;;;;;;1.32;80.10;99844.78;5073416;28;20610;-81
2020/12/03 01:03:21;;;;;;;16.30;14.60;;;;;;;1.30;80.28;99838.88;5073228;28;20563;-80
2020/12/03 01:05:46;;;;;;;15.60;13.93;;;;;;;1.25;80.63;99830.75;5073093;28;20201;-80
2020/12/03 01:08:12;;;;;;;17.93;16.13;;;;;;;1.28;80.71;99832.91;5072895;28;20177;-80
2020/12/03 01:10:37;;;;;;;12.97;11.67;;;;;;;1.28;80.52;99824.84;5073002;28;20549;-80
2020/12/03 01:13:04;;;;;;;13.80;12.40;;;;;;;1.24;80.55;99825.66;5072870;28;20273;-79
2020/12/03 01:15:30;;;;;;;17.17;15.23;;;;;;;1.26;80.79;99823.50;5072942;28;20170;-80
2020/12/03 01:17:56;;;;;;;15.10;13.67;;;;;;;1.26;80.77;99824.31;5072641;28;20494;-80
2020/12/03 01:20:28;;;;;;;6.93;5.37;;;;;;;1.31;80.66;99816.28;5071592;28;20202;-80
2020/12/03 01:22:53;;;;;;;16.17;14.57;;;;;;;1.30;80.88;99814.66;5054801;28;20261;-80
2020/12/03 01:25:21;;;;;;;16.03;14.53;;;;;;;1.25;80.99;99817.31;5072676;28;20528;-80
2020/12/03 01:27:47;;;;;;;17.37;15.53;;;;;;;1.26;81.23;99810.03;5072564;28;20175;-80
2020/12/03 01:30:14;;;;;;;15.60;12.10;;;;;;;1.28;81.47;99805.22;5072391;28;20784;-80
2020/12/03 01:32:39;;;;;;;16.10;14.40;;;;;;;1.31;81.34;99796.63;5072758;28;20607;-80
2020/12/03 01:35:06;;;;;;;15.83;14.33;;;;;;;1.34;81.39;99793.41;5054489;28;20520;-80
2020/12/03 01:37:32;;;;;;;7.33;4.00;;;;;;;1.32;81.34;99787.47;5072291;28;20178;-81
2020/12/03 01:39:57;;;;;;;15.73;14.23;;;;;;;1.32;81.40;99780.22;5072471;28;20468;-80
2020/12/03 01:42:22;;;;;;;15.00;13.60;;;;;;;1.34;81.16;99766.50;5072346;28;20258;-80
2020/12/03 01:44:52;;;;;;;14.73;13.17;;;;;;;1.36;81.58;99759.75;5054209;28;20178;-80
2020/12/03 01:47:24;;;;;;;12.37;11.20;;;;;;;1.38;81.39;99759.50;5054169;28;20551;-80
2020/12/03 01:49:49;;;;;;;16.20;14.70;;;;;;;1.37;81.41;99744.41;5072335;28;20417;-81
2020/12/03 01:52:15;;;;;;;15.10;13.57;;;;;;;1.42;81.34;99752.47;5072268;28;20419;-80
2020/12/03 01:54:40;;;;;;;18.07;16.27;;;;;;;1.39;81.25;99747.66;5072015;28;20645;-80
2020/12/03 01:57:08;;;;;;;14.93;13.63;;;;;;;1.51;81.34;99744.69;5071779;28;20186;-81
2020/12/03 01:59:49;;;;;;;15.27;13.77;;;;;;;1.45;81.06;99742.00;5072004;28;20275;-79
2020/12/03 02:02:16;;;;;;;15.63;14.20;;;;;;;1.47;81.25;99733.66;5072042;28;20445;-80
2020/12/03 02:04:41;;;;;;;16.90;15.40;;;;;;;1.44;81.45;99731.50;5053782;28;20434;-80
2020/12/03 02:07:13;;;;;;;16.90;15.33;;;;;;;1.40;81.64;99720.47;5071802;28;20421;-80
2020/12/03 02:09:38;;;;;;;16.93;15.40;;;;;;;1.40;81.34;99701.63;5071663;28;20167;-80
2020/12/03 02:12:05;;;;;;;15.83;14.30;;;;;;;1.45;81.73;99701.66;5071769;28;20482;-80
2020/12/03 02:14:31;;;;;;;12.83;11.63;;;;;;;1.48;81.16;99686.84;5053765;28;20190;-79
2020/12/03 02:16:57;;;;;;;14.13;12.83;;;;;;;1.44;81.28;99702.69;5071235;28;20436;-80
2020/12/03 02:19:29;;;;;;;16.83;15.30;;;;;;;1.43;81.44;99690.31;5053712;28;20202;-80
2020/12/03 02:22:04;;;;;;;16.30;14.87;;;;;;;1.46;81.57;99692.50;5071664;28;20697;-80
2020/12/03 02:24:32;;;;;;;15.00;13.50;;;;;;;1.42;81.14;99694.09;5053481;28;20185;-79
2020/12/03 02:26:58;;;;;;;17.03;15.33;;;;;;;1.29;81.71;99699.19;5053347;28;20862;-80
2020/12/03 02:29:24;;;;;;;16.70;15.10;;;;;;;1.36;81.51;99700.56;5053337;28;20794;-80
2020/12/03 02:31:50;;;;;;;14.53;13.03;;;;;;;1.40;81.38;99688.16;5071126;28;20417;-79
2020/12/03 02:34:17;;;;;;;16.03;14.63;;;;;;;1.46;81.50;99687.09;5053454;28;20174;-80
2020/12/03 02:36:42;;;;;;;17.23;15.73;;;;;;;1.41;81.66;99689.78;5061531;28;20447;-81
2020/12/03 02:39:08;;;;;;;17.63;16.00;;;;;;;1.38;82.15;99692.22;5070531;28;20975;-80
2020/12/03 02:41:34;;;;;;;18.23;16.63;;;;;;;1.46;81.65;99700.56;5069035;28;20187;-80
2020/12/03 02:44:00;;;;;;;16.97;15.50;;;;;;;1.47;81.57;99701.38;5052507;28;20425;-80
2020/12/03 02:46:25;;;;;;;17.53;15.73;;;;;;;1.49;81.71;99683.06;5051411;28;20186;-80
2020/12/03 02:48:51;;;;;;;17.47;15.83;;;;;;;1.62;81.72;99693.28;5033518;28;20183;-80
2020/12/03 02:51:17;;;;;;;16.63;15.13;;;;;;;1.64;81.34;99684.94;5051188;28;20201;-80
2020/12/03 02:53:42;;;;;;;15.10;13.70;;;;;;;1.62;81.03;99687.91;5051140;28;20187;-80
2020/12/03 02:56:10;;;;;;;14.70;13.33;;;;;;;1.62;81.35;99687.91;5051328;28;20187;-80
2020/12/03 02:58:36;;;;;;;15.73;14.23;;;;;;;1.57;81.41;99684.38;5051130;28;20583;-80
2020/12/03 03:01:01;;;;;;;15.53;14.13;;;;;;;1.51;81.84;99677.41;5051101;28;20619;-80
2020/12/03 03:03:26;;;;;;;12.97;11.67;;;;;;;1.46;82.05;99665.56;5051167;28;20234;-80
2020/12/03 03:05:51;;;;;;;14.77;13.37;;;;;;;1.43;82.24;99667.97;5050815;28;20545;-81
2020/12/03 03:08:17;;;;;;;15.77;14.37;;;;;;;1.37;82.60;99666.38;5050896;28;20773;-80
2020/12/03 03:10:42;;;;;;;14.67;13.17;;;;;;;1.37;82.50;99659.13;5033068;28;20654;-80
2020/12/03 03:13:08;;;;;;;15.27;13.87;;;;;;;1.38;82.77;99655.34;5050653;28;20182;-80
2020/12/03 03:15:33;;;;;;;15.70;13.80;;;;;;;1.37;82.56;99647.53;5032437;28;20174;-79
2020/12/03 03:17:58;;;;;;;16.27;14.03;;;;;;;1.37;82.82;99650.22;5050441;28;20194;-79
2020/12/03 03:20:23;;;;;;;10.63;9.53;;;;;;;1.33;82.99;99644.59;5032750;28;20210;-80
2020/12/03 03:22:49;;;;;;;16.07;12.47;;;;;;;1.31;83.37;99637.88;5032828;28;20186;-79
2020/12/03 03:25:15;;;;;;;7.43;5.77;;;;;;;1.30;83.09;99634.38;5050661;28;20190;-79
2020/12/03 03:27:40;;;;;;;7.87;7.07;;;;;;;1.30;83.17;99637.06;5051028;28;20175;-80
2020/12/03 03:30:06;;;;;;;15.03;13.60;;;;;;;1.31;83.45;99638.69;5050722;28;20501;-79
2020/12/03 03:32:32;;;;;;;15.87;14.37;;;;;;;1.32;83.20;99637.59;5050557;28;20212;-80
2020/12/03 03:34:57;;;;;;;12.57;10.37;;;;;;;1.29;83.40;99626.53;5032635;28;20500;-80
2020/12/03 03:37:23;;;;;;;14.97;13.10;;;;;;;1.29;83.50;99626.53;5050403;28;20191;-79
2020/12/03 03:39:48;;;;;;;14.93;13.37;;;;;;;1.29;83.83;99618.47;5050454;28;20214;-80
2020/12/03 03:42:13;;;;;;;12.20;11.00;;;;;;;1.27;83.78;99604.50;5050063;28;20163;-79
2020/12/03 03:44:39;;;;;;;12.17;10.07;;;;;;;1.31;83.77;99621.72;5050592;28;20194;-80
2020/12/03 03:47:04;;;;;;;7.77;6.40;;;;;;;1.31;83.43;99616.34;5050360;28;20262;-80
2020/12/03 03:49:29;;;;;;;7.90;6.37;;;;;;;1.30;83.67;99615.53;5050531;28;20383;-79
2020/12/03 03:51:55;;;;;;;12.40;10.30;;;;;;;1.30;83.57;99610.16;5050498;28;20206;-80
2020/12/03 03:54:20;;;;;;;14.47;12.97;;;;;;;1.32;83.82;99599.94;5050454;28;20247;-79
2020/12/03 03:56:45;;;;;;;8.77;7.87;;;;;;;1.31;83.58;99601.00;5050362;28;20725;-79
2020/12/03 03:59:11;;;;;;;16.43;14.77;;;;;;;1.35;83.69;99599.38;5050312;28;20206;-79
2020/12/03 04:01:36;;;;;;;21.27;19.67;;;;;;;1.44;83.66;99596.94;5049571;28;20431;-80
2020/12/03 04:04:01;;;;;;;16.30;15.00;;;;;;;1.47;83.74;99601.78;5050383;28;20179;-80
2020/12/03 04:06:27;;;;;;;17.83;16.07;;;;;;;1.38;83.98;99590.75;5050144;28;20182;-80
2020/12/03 04:08:52;;;;;;;17.47;15.97;;;;;;;1.42;83.74;99599.09;5032383;28;20636;-80
2020/12/03 04:11:18;;;;;;;15.47;14.03;;;;;;;1.47;83.86;99607.97;5050355;28;20274;-80
2020/12/03 04:13:43;;;;;;;14.43;13.10;;;;;;;1.44;83.53;99596.94;5050322;28;20175;-79
2020/12/03 04:16:11;;;;;;;17.67;15.97;;;;;;;1.47;83.78;99599.91;5050114;28;20175;-80
2020/12/03 04:18:37;;;;;;;12.47;11.23;;;;;;;1.48;83.61;99592.63;5050147;28;20187;-80
2020/12/03 04:21:06;;;;;;;16.20;14.67;;;;;;;1.45;83.78;99588.59;5050027;28;20886;-80
2020/12/03 04:23:32;;;;;;;11.30;10.13;;;;;;;1.42;83.90;99596.41;5050080;28;20479;-80
2020/12/03 04:25:58;;;;;;;16.00;14.40;;;;;;;1.41;83.99;99579.44;5050191;28;20426;-81
2020/12/03 04:28:23;;;;;;;16.33;14.83;;;;;;;1.40;83.69;99575.16;5065525;28;20167;-79
2020/12/03 04:30:49;;;;;;;17.53;15.93;;;;;;;1.40;84.07;99572.44;5050162;28;20184;-80
2020/12/03 04:33:14;;;;;;;13.50;11.47;;;;;;;1.41;83.89;99566.00;5050100;28;20187;-80
2020/12/03 04:35:40;;;;;;;19.33;17.40;;;;;;;1.43;84.31;99565.72;5050136;28;20183;-80
2020/12/03 04:38:09;;;;;;;16.63;15.07;;;;;;;1.45;83.95;99555.50;5049914;28;20171;-80
2020/12/03 04:40:38;;;;;;;15.67;14.27;;;;;;;1.49;nan;99560.06;5049997;28;20746;-80
2020/12/03 04:43:12;;;;;;;9.90;8.93;;;;;;;1.51;83.96;99550.91;5049995;28;20422;-80
2020/12/03 04:45:49;;;;;;;15.00;13.43;;;;;;;1.56;83.49;99549.00;5049881;28;20999;-80
2020/12/03 04:48:27;;;;;;;14.70;13.37;;;;;;;1.57;83.36;99555.19;5049877;28;20478;-80
2020/12/03 04:51:28;;;;;;;24.57;16.47;;;;;;;1.57;83.42;99550.59;5049942;28;20416;-80
2020/12/03 04:54:27;;;;;;;16.17;14.67;;;;;;;1.55;83.40;99536.63;5051282;28;20440;-80
2020/12/03 04:57:11;;;;;;;8.60;7.80;;;;;;;1.53;83.50;99544.16;5053414;28;20408;-80
2020/12/03 04:59:50;;;;;;;15.73;14.27;;;;;;;1.48;83.31;99536.13;5053353;28;20603;-80
2020/12/03 05:02:39;;;;;;;16.70;15.17;;;;;;;1.53;83.35;99532.59;5053376;28;20416;-80
2020/12/03 05:05:39;;;;;;;16.10;14.67;;;;;;;1.49;83.42;99524.28;5053445;28;20451;-80
2020/12/03 05:08:08;;;;;;;15.43;14.07;;;;;;;1.60;83.22;99525.84;5053020;28;20417;-80
2020/12/03 05:10:38;;;;;;;17.03;15.43;;;;;;;1.58;83.21;99522.59;5035278;28;20780;-81
2020/12/03 05:13:05;;;;;;;15.60;14.00;;;;;;;1.68;82.93;99522.56;5053171;28;20414;-80
2020/12/03 05:15:34;;;;;;;15.80;14.40;;;;;;;1.68;82.99;99516.38;5053143;28;20418;-80
2020/12/03 05:18:14;;;;;;;13.27;11.27;;;;;;;1.64;82.56;99515.34;5052963;28;20433;-80
2020/12/03 05:20:44;;;;;;;15.50;13.90;;;;;;;1.62;83.15;99504.03;5052968;28;20469;-81
2020/12/03 05:23:27;;;;;;;17.50;15.70;;;;;;;1.59;82.84;99505.41;5052946;28;20406;-80
2020/12/03 05:25:55;;;;;;;7.20;6.40;;;;;;;1.60;82.86;99498.94;5053106;28;20470;-80
2020/12/03 05:28:20;;;;;;;12.20;11.00;;;;;;;1.54;82.95;99505.41;5052846;28;20564;-80
2020/12/03 05:30:45;;;;;;;17.10;15.43;;;;;;;1.51;83.34;99511.34;5053338;28;20421;-81
2020/12/03 05:33:11;;;;;;;14.27;12.07;;;;;;;1.51;83.48;99502.47;5060088;28;20226;-80
2020/12/03 05:35:38;;;;;;;13.10;11.70;;;;;;;1.51;83.63;99497.88;5073273;28;20699;-81
2020/12/03 05:38:06;;;;;;;16.73;14.73;;;;;;;1.52;83.75;99498.69;5072886;28;20261;-80
2020/12/03 05:40:31;;;;;;;17.73;16.13;;;;;;;1.59;83.88;99493.81;5057470;28;20507;-81
2020/12/03 05:42:57;;;;;;;18.70;16.90;;;;;;;1.57;83.62;99485.19;5052903;28;20826;-81
2020/12/03 05:45:32;;;;;;;18.73;16.73;;;;;;;1.61;83.88;99492.47;5053846;28;20167;-81
2020/12/03 05:48:03;;;;;;;16.97;15.13;;;;;;;1.58;83.67;99484.91;5052640;28;20179;-81
2020/12/03 05:50:35;;;;;;;13.50;12.17;;;;;;;1.61;83.52;99486.28;5052360;28;20821;-82
2020/12/03 05:53:03;;;;;;;9.17;7.83;;;;;;;1.62;82.82;99480.63;5052416;28;20452;-81
2020/12/03 05:55:31;;;;;;;11.63;10.43;;;;;;;1.60;83.31;99463.94;5034426;28;21001;-81
2020/12/03 05:58:14;;;;;;;18.67;16.80;;;;;;;1.60;83.66;99468.53;5052350;28;20418;-81
2020/12/03 06:00:39;;;;;;;18.13;15.53;;;;;;;1.60;83.32;99463.13;5034311;28;20900;-81
2020/12/03 06:03:08;;;;;;;18.83;16.93;;;;;;;1.63;83.11;99467.97;5034081;28;20504;-81
2020/12/03 06:05:52;;;;;;;9.80;7.43;;;;;;;1.57;83.34;99472.53;5051598;28;20189;-81
2020/12/03 06:08:47;;;;;;;18.90;17.10;;;;;;;1.61;83.54;99460.16;5052119;28;20426;-80
2020/12/03 06:11:41;;;;;;;20.10;18.20;;;;;;;1.50;83.57;99472.06;5034235;28;20503;-81
2020/12/03 06:14:15;;;;;;;21.63;17.90;;;;;;;1.59;83.85;99472.28;5052095;28;20421;-81
2020/12/03 06:16:53;;;;;;;19.87;17.93;;;;;;;1.64;83.60;99464.19;5051885;28;20434;-81
2020/12/03 06:19:24;;;;;;;19.20;16.00;;;;;;;1.69;83.19;99456.88;5051899;28;20497;-81
2020/12/03 06:22:00;;;;;;;17.97;16.27;;;;;;;1.70;83.27;99453.09;5051934;28;20964;-81
2020/12/03 06:24:39;;;;;;;20.27;18.23;;;;;;;1.70;83.38;99458.50;5033976;28;20181;-80
2020/12/03 06:27:22;;;;;;;20.70;18.73;;;;;;;1.65;84.17;99449.66;5033656;28;20430;-80
2020/12/03 06:30:01;;;;;;;20.60;18.53;;;;;;;1.72;83.83;99453.63;5051818;28;20430;-81
2020/12/03 06:32:41;;;;;;;20.17;18.07;;;;;;;1.76;84.08;99443.94;5051842;28;20413;-80
2020/12/03 06:35:48;;;;;;;22.20;19.80;;;;;;;1.61;84.89;99438.63;5051648;28;20768;-80
2020/12/03 06:38:32;;;;;;;20.57;17.70;;;;;;;1.64;85.28;99437.28;5051658;28;20489;-80
2020/12/03 06:41:35;;;;;;;21.07;18.17;;;;;;;1.57;84.96;99442.94;5051270;28;20469;-80
2020/12/03 06:44:25;;;;;;;13.70;12.30;;;;;;;1.57;85.62;99434.88;5033539;28;20421;-81
2020/12/03 06:47:02;;;;;;;17.13;13.63;;;;;;;1.56;85.61;99437.84;5033310;28;20437;-80
2020/12/03 06:49:43;;;;;;;22.37;19.23;;;;;;;1.56;85.89;99432.44;5033498;28;20434;-80
2020/12/03 06:52:36;;;;;;;22.10;19.57;;;;;;;1.50;86.37;99429.00;5051226;28;20450;-81
2020/12/03 06:55:07;;;;;;;20.20;17.77;;;;;;;1.62;85.63;99434.84;5051183;28;20490;-80
2020/12/03 06:57:32;;;;;;;26.83;21.67;;;;;;;1.56;85.75;99427.88;5033413;28;20716;-80
2020/12/03 07:00:36;;;;;;;26.73;21.07;;;;;;;1.63;85.96;99425.69;5051232;28;20461;-80
2020/12/03 07:03:14;;;;;;;28.10;21.90;;;;;;;1.62;85.56;99432.16;5051184;28;20203;-75
2020/12/03 07:06:02;;;;;;;27.43;21.83;;;;;;;1.68;85.75;99422.16;5051547;28;20278;-76
2020/12/03 07:08:49;;;;;;;22.43;19.93;;;;;;;1.65;85.85;99422.72;5040080;28;20437;-77
2020/12/03 07:11:27;;;;;;;16.60;14.57;;;;;;;1.67;84.49;99421.34;5051548;28;20417;-75
2020/12/03 07:14:20;;;;;;;11.10;9.97;;;;;;;1.59;84.66;99419.28;5050909;28;20418;-76
2020/12/03 07:17:09;;;;;;;11.73;9.67;;;;;;;1.59;83.82;99421.13;5050133;28;20426;-75
2020/12/03 07:19:59;;;;;;;12.07;10.40;;;;;;;1.55;84.03;99415.50;5050755;28;20456;-76
2020/12/03 07:22:54;;;;;;;8.37;7.50;;;;;;;1.57;84.17;99405.25;5033063;28;20827;-75
2020/12/03 07:25:20;;;;;;;18.70;16.57;;;;;;;1.56;84.35;99403.66;5046674;28;20434;-77
2020/12/03 07:27:57;;;;;;;21.77;18.87;;;;;;;1.61;84.29;99402.84;5050799;28;20417;-74
2020/12/03 07:30:47;;;;;;;20.07;18.07;;;;;;;1.71;83.89;99406.25;5052529;28;20436;-74
2020/12/03 07:33:43;;;;;;;23.58;21.15;;;;;;;1.78;83.78;99395.19;5062909;28;20419;-74
2020/12/03 07:36:21;;;;;;;20.47;18.50;;;;;;;1.83;83.19;99381.69;5052675;28;20261;-76
2020/12/03 07:39:00;;;;;;;17.27;15.63;;;;;;;1.83;83.03;99397.03;5060163;28;20482;-74
2020/12/03 07:41:28;;;;;;;15.90;14.40;;;;;;;1.82;83.13;99384.66;5050617;28;20777;-75
2020/12/03 07:44:09;;;;;;;15.27;12.27;;;;;;;1.79;83.37;99383.34;5050730;28;20410;-74
2020/12/03 07:46:39;;;;;;;13.47;8.87;;;;;;;1.84;82.90;99382.47;5050417;28;20421;-75
2020/12/03 07:49:05;;;;;;;19.23;17.30;;;;;;;1.83;83.11;99380.88;5050434;28;20418;-74
2020/12/03 07:51:31;;;;;;;17.90;16.13;;;;;;;1.83;83.10;99376.28;5050340;28;20409;-75
2020/12/03 07:54:15;;;;;;;14.37;12.87;;;;;;;1.85;82.69;99362.53;5050438;28;20893;-75
2020/12/03 07:56:43;;;;;;;18.53;16.63;;;;;;;1.83;83.05;99364.72;5050265;28;20221;-73
2020/12/03 07:59:23;;;;;;;19.60;17.40;;;;;;;1.88;83.11;99361.97;5050318;28;20449;-75
2020/12/03 08:01:54;;;;;;;19.27;17.47;;;;;;;1.84;82.83;99364.44;5050737;28;20425;-76
2020/12/03 08:04:29;;;;;;;19.27;17.37;;;;;;;1.85;83.14;99354.47;5050487;28;20517;-74
2020/12/03 08:07:04;;;;;;;19.03;17.13;;;;;;;1.89;82.86;99356.34;5050348;28;20414;-76
2020/12/03 08:09:40;;;;;;;19.90;17.30;;;;;;;1.97;83.05;99358.41;5050594;28;20892;-78
2020/12/03 08:12:11;;;;;;;22.27;19.87;;;;;;;1.91;83.57;99366.84;5050431;28;20905;-79
2020/12/03 08:14:43;;;;;;;11.53;10.50;;;;;;;1.93;83.43;99354.69;5050456;28;20413;-75
2020/12/03 08:17:21;;;;;;;21.83;18.90;;;;;;;1.99;83.33;99344.66;5050135;28;20568;-74
2020/12/03 08:20:03;;;;;;;22.23;16.27;;;;;;;2.05;82.98;99344.34;5050175;28;20968;-76
2020/12/03 08:22:34;;;;;;;25.33;16.70;;;;;;;2.02;83.06;99328.72;5050405;28;20909;-75
2020/12/03 08:25:00;;;;;;;21.03;10.43;;;;;;;2.09;82.91;99318.44;5050356;28;20405;-76
2020/12/03 08:27:25;;;;;;;22.30;15.80;;;;;;;2.07;82.85;99317.13;5050334;28;20742;-76
2020/12/03 08:29:51;;;;;;;19.00;17.10;;;;;;;2.09;82.74;99299.59;5053482;28;20417;-77
2020/12/03 08:32:16;;;;;;;22.77;18.30;;;;;;;2.09;82.76;99296.09;5036086;28;20206;-76
2020/12/03 08:34:43;;;;;;;19.20;16.73;;;;;;;2.09;82.99;99288.00;5053952;28;20533;-76
2020/12/03 08:37:14;;;;;;;20.03;18.33;;;;;;;2.09;82.83;99288.00;5054292;28;20175;-76
2020/12/03 08:39:42;;;;;;;18.33;16.47;;;;;;;2.22;82.49;99290.06;5053836;28;20449;-76
2020/12/03 08:42:10;;;;;;;21.70;19.50;;;;;;;2.26;82.59;99287.59;5054271;28;20872;-78
2020/12/03 08:44:36;;;;;;;21.87;19.47;;;;;;;2.32;82.52;99289.97;5056190;28;20414;-77
2020/12/03 08:47:17;;;;;;;22.33;19.33;;;;;;;2.32;82.69;99284.56;5054684;28;20428;-77
2020/12/03 08:49:46;;;;;;;26.67;19.00;;;;;;;2.35;82.24;99281.28;5053621;28;20650;-77
2020/12/03 08:52:17;;;;;;;19.63;17.83;;;;;;;2.29;81.90;99285.09;5053910;28;20410;-78
2020/12/03 08:54:43;;;;;;;19.20;17.40;;;;;;;2.32;81.90;99275.69;5053215;28;20281;-77
2020/12/03 08:57:11;;;;;;;19.07;17.33;;;;;;;2.25;81.67;99270.63;5053508;28;20996;-77
2020/12/03 08:59:44;;;;;;;18.73;16.93;;;;;;;2.34;82.20;99274.31;5042020;28;20559;-77
2020/12/03 09:02:10;;;;;;;19.03;17.33;;;;;;;2.34;81.97;99276.19;5053462;28;20440;-77
2020/12/03 09:04:42;;;;;;;19.20;17.50;;;;;;;2.35;81.58;99275.91;5053496;28;20186;-77
2020/12/03 09:07:12;;;;;;;19.93;18.03;;;;;;;2.28;81.92;99272.72;5053315;28;20183;-76
2020/12/03 09:09:42;;;;;;;20.03;18.17;;;;;;;2.44;81.36;99267.19;5053383;28;20499;-76
2020/12/03 09:12:10;;;;;;;18.93;17.33;;;;;;;2.36;81.79;99269.41;5053301;28;20449;-77
2020/12/03 09:14:39;;;;;;;18.87;17.17;;;;;;;2.31;82.03;99280.22;5053229;28;20659;-76
2020/12/03 09:17:08;;;;;;;19.87;17.83;;;;;;;2.36;81.47;99264.03;5052486;28;20429;-77
2020/12/03 09:19:34;;;;;;;19.30;17.57;;;;;;;2.46;81.46;99260.44;5052816;28;20480;-77
2020/12/03 09:22:02;;;;;;;19.77;17.77;;;;;;;2.38;81.33;99264.53;5052618;28;20894;-77
2020/12/03 09:24:27;;;;;;;18.33;16.63;;;;;;;2.52;81.54;99261.16;5052635;28;20180;-77
2020/12/03 09:26:58;;;;;;;13.27;11.30;;;;;;;2.59;79.28;99256.22;5052736;28;20508;-77
2020/12/03 09:29:24;;;;;;;17.67;15.87;;;;;;;2.45;79.90;99256.09;5052677;28;20558;-79
2020/12/03 09:31:56;;;;;;;17.30;15.60;;;;;;;2.41;80.36;99252.38;5052792;28;20508;-74
2020/12/03 09:34:22;;;;;;;19.10;17.20;;;;;;;2.41;81.25;99249.69;5052927;28;20508;-74
2020/12/03 09:36:48;;;;;;;20.80;18.87;;;;;;;2.36;80.77;99250.56;5052668;28;20449;-75
2020/12/03 09:39:13;;;;;;;13.50;12.13;;;;;;;2.65;80.42;99244.28;5052662;28;20260;-74
2020/12/03 09:41:42;;;;;;;18.77;17.17;;;;;;;2.54;80.18;99245.50;5051295;28;20179;-74
2020/12/03 09:44:12;;;;;;;20.17;18.07;;;;;;;2.25;80.82;99240.97;5052543;28;20172;-74
2020/12/03 09:46:40;;;;;;;17.90;16.17;;;;;;;2.43;80.95;99241.31;5052755;28;20414;-74
2020/12/03 09:49:11;;;;;;;17.87;16.33;;;;;;;2.38;80.82;99234.09;5052511;28;20175;-75
2020/12/03 09:51:36;;;;;;;24.13;21.57;;;;;;;2.33;80.85;99229.56;5052443;28;20410;-74
2020/12/03 09:54:02;;;;;;;22.03;19.57;;;;;;;2.28;81.38;99223.41;5052292;28;20178;-74
2020/12/03 09:56:27;;;;;;;17.43;15.63;;;;;;;2.24;81.51;99217.00;5052099;28;20241;-74
2020/12/03 09:58:58;;;;;;;18.90;17.07;;;;;;;2.41;81.38;99224.63;5052413;28;20266;-75
2020/12/03 10:01:46;;;;;;;19.97;18.10;;;;;;;2.35;81.29;99215.81;5052141;28;20180;-74
2020/12/03 10:04:49;;;;;;;17.70;16.00;;;;;;;2.41;81.14;99209.25;5052186;28;20414;-74
2020/12/03 10:07:39;;;;;;;18.10;16.43;;;;;;;2.38;80.21;99216.03;5051967;28;20429;-74
2020/12/03 10:10:35;;;;;;;18.30;16.37;;;;;;;2.54;81.22;99207.75;5052019;28;20418;-75
2020/12/03 10:13:26;;;;;;;18.93;17.17;;;;;;;2.52;80.14;99201.84;5051825;28;20529;-74
2020/12/03 10:16:18;;;;;;;18.87;17.27;;;;;;;2.44;80.69;99197.09;5051756;28;20428;-74
2020/12/03 10:18:49;;;;;;;19.37;17.33;;;;;;;2.45;80.71;99193.31;5051881;28;20187;-74
2020/12/03 10:21:20;;;;;;;20.23;16.93;;;;;;;2.46;80.76;99179.56;5051688;28;20465;-74
2020/12/03 10:23:56;;;;;;;17.37;15.67;;;;;;;2.51;81.07;99176.00;5051878;28;20495;-74
2020/12/03 10:26:39;;;;;;;17.90;16.40;;;;;;;2.57;80.68;99175.63;5051811;28;20406;-75
2020/12/03 10:29:37;;;;;;;16.10;14.43;;;;;;;2.68;79.91;99170.91;5051763;28;20416;-74
2020/12/03 10:32:14;;;;;;;17.23;15.70;;;;;;;2.59;79.73;99170.75;5051607;28;20539;-75
2020/12/03 10:34:42;;;;;;;16.17;14.57;;;;;;;2.87;79.02;99174.41;5051486;28;20970;-74
2020/12/03 10:37:18;;;;;;;17.03;14.87;;;;;;;2.89;79.79;99168.72;5051362;28;20454;-74
2020/12/03 10:39:51;;;;;;;15.77;14.37;;;;;;;2.86;78.45;99170.09;5051053;28;20469;-74
2020/12/03 10:42:19;;;;;;;16.30;14.80;;;;;;;2.78;79.33;99170.78;5051270;28;20179;-75
2020/12/03 10:44:47;;;;;;;16.23;14.63;;;;;;;2.93;78.96;99170.56;5051233;28;20436;-74
2020/12/03 10:47:16;;;;;;;6.07;5.40;;;;;;;3.07;78.03;99159.03;5051180;28;20176;-74
2020/12/03 10:49:43;;;;;;;4.30;3.93;;;;;;;3.02;78.27;99161.78;5051248;28;20238;-74
2020/12/03 10:52:13;;;;;;;15.20;6.80;;;;;;;2.97;78.60;99152.69;5051168;28;20651;-74
2020/12/03 10:54:40;;;;;;;9.07;7.03;;;;;;;2.93;78.34;99159.78;5033310;28;20812;-74
2020/12/03 10:57:20;;;;;;;11.93;10.53;;;;;;;2.81;78.36;99150.50;5050960;28;20230;-76
2020/12/03 10:59:46;;;;;;;16.60;15.07;;;;;;;2.77;79.43;99147.59;5050988;28;20460;-76
2020/12/03 11:02:18;;;;;;;16.10;14.40;;;;;;;2.83;79.24;99140.22;5050995;28;20774;-76
2020/12/03 11:04:44;;;;;;;10.97;9.80;;;;;;;2.82;78.31;99144.03;5051050;28;20171;-73
2020/12/03 11:07:12;;;;;;;16.33;14.33;;;;;;;2.87;79.31;99133.16;5051089;28;20767;-74
2020/12/03 11:09:39;;;;;;;16.20;14.73;;;;;;;2.90;79.01;99141.47;5050944;28;20599;-77
2020/12/03 11:12:10;;;;;;;17.07;11.83;;;;;;;2.92;78.69;99128.50;5050851;28;20419;-77
2020/12/03 11:14:36;;;;;;;17.47;15.77;;;;;;;2.85;78.93;99130.75;5050806;28;20195;-73
2020/12/03 11:17:14;;;;;;;7.40;5.87;;;;;;;2.90;78.73;99132.59;5050599;28;20517;-74
2020/12/03 11:19:42;;;;;;;13.73;12.33;;;;;;;2.93;78.97;99126.59;5050519;28;20453;-76
2020/12/03 11:22:41;;;;;;;13.77;12.50;;;;;;;2.89;77.86;99120.16;5052562;28;20249;-74
2020/12/03 11:25:15;;;;;;;13.33;12.03;;;;;;;2.85;78.99;99109.16;5054710;28;20425;-76
2020/12/03 11:27:42;;;;;;;13.97;12.60;;;;;;;2.91;79.01;99109.91;5053120;28;20664;-76
2020/12/03 11:30:15;;;;;;;13.73;12.17;;;;;;;2.95;78.55;99110.91;5052255;28;20448;-75
2020/12/03 11:32:48;;;;;;;15.23;13.63;;;;;;;2.95;78.52;99110.91;5070788;28;20697;-75
2020/12/03 11:35:26;;;;;;;10.27;7.83;;;;;;;2.88;78.21;99105.88;5070307;28;20178;-79
2020/12/03 11:37:53;;;;;;;15.23;13.83;;;;;;;2.88;78.14;99100.47;5053603;28;20591;-74
2020/12/03 11:41:19;;;;;;;16.67;15.17;;;;;;;2.79;78.52;99088.78;5066252;28;20475;-75
2020/12/03 11:49:15;;;;;;;15.93;13.93;;;;;;;2.82;78.53;99065.81;4987382;28;20416;-73
2020/12/03 11:51:40;;;;;;;10.47;9.40;;;;;;;2.82;78.85;99072.00;5010665;28;20426;-73
2020/12/03 11:54:09;;;;;;;16.07;13.33;;;;;;;2.81;79.02;99069.59;5029736;28;20237;-74